createdAt,value
2019-04-06T03:53:47.672Z,6.10
2019-04-06T03:56:16.867Z,6.00
2019-04-06T03:58:47.209Z,6.10
2019-04-06T04:01:16.448Z,6.10
2019-04-06T04:03:47.002Z,6.10
2019-04-06T04:06:17.431Z,6.10
2019-04-06T04:08:46.665Z,6.10
2019-04-06T04:11:16.124Z,6.10
2019-04-06T04:13:49.193Z,6.00
2019-04-06T04:16:18.331Z,6.10
2019-04-06T04:18:47.464Z,6.00
2019-04-06T04:21:17.010Z,6.00
2019-04-06T04:23:46.920Z,6.00
2019-04-06T04:26:16.097Z,6.10
2019-04-06T04:28:45.332Z,6.10
2019-04-06T04:31:17.568Z,6.10
2019-04-06T04:33:46.945Z,6.00
2019-04-06T04:36:17.824Z,6.10
2019-04-06T04:38:46.981Z,6.10
2019-04-06T04:41:16.297Z,6.10
2019-04-06T04:43:46.032Z,6.00
2019-04-06T04:46:15.553Z,6.00
2019-04-06T04:48:44.710Z,6.00
2019-04-06T04:51:13.991Z,6.00
2019-04-06T04:53:43.143Z,6.00
2019-04-06T04:56:14.656Z,6.10
2019-04-06T04:58:49.440Z,6.00
2019-04-06T05:01:18.656Z,6.00
2019-04-06T05:03:47.804Z,6.00
2019-04-06T05:06:17.204Z,5.90
2019-04-06T05:08:47.874Z,5.90
2019-04-06T05:11:18.855Z,5.90
2019-04-06T05:13:48.032Z,5.90
2019-04-06T05:16:17.733Z,6.00
2019-04-06T05:18:46.905Z,6.00
2019-04-06T05:21:20.434Z,6.10
2019-04-06T05:23:49.730Z,6.10
2019-04-06T05:26:19.407Z,6.10
2019-04-06T05:28:50.226Z,6.20
2019-04-06T05:31:23.912Z,6.20
2019-04-06T05:33:55.430Z,6.20
2019-04-06T05:36:24.538Z,6.20
2019-04-06T05:38:54.176Z,6.20
2019-04-06T05:41:23.323Z,6.30
2019-04-06T05:43:52.491Z,6.30
2019-04-06T05:46:21.653Z,6.30
2019-04-06T05:48:52.356Z,6.90
2019-04-06T05:51:22.007Z,7.40
2019-04-06T05:53:52.049Z,7.90
2019-04-06T05:56:21.381Z,8.10
2019-04-06T05:58:50.846Z,8.20
2019-04-06T06:01:20.971Z,8.60
2019-04-06T06:03:50.292Z,9.30
2019-04-06T06:06:19.817Z,9.50
2019-04-06T06:08:49.034Z,9.20
2019-04-06T06:11:18.851Z,9.30
2019-04-06T06:13:48.055Z,9.10
2019-04-06T06:17:23.181Z,8.60
2019-04-06T06:19:52.327Z,8.60
2019-04-06T06:22:21.747Z,8.50
2019-04-06T06:24:50.924Z,8.60
2019-04-06T06:27:20.039Z,8.50
2019-04-06T06:29:49.225Z,8.40
2019-04-06T06:32:18.395Z,8.10
2019-04-06T06:34:47.615Z,8.20
2019-04-06T06:37:19.350Z,8.40
2019-04-06T06:39:48.509Z,8.40
2019-04-06T06:42:17.657Z,8.50
2019-04-06T06:44:46.875Z,8.40
2019-04-06T06:47:16.037Z,8.70
2019-04-06T06:49:45.604Z,9.50
2019-04-06T06:52:16.814Z,10.10
2019-04-06T06:54:53.359Z,10.90
2019-04-06T06:57:28.265Z,11.30
2019-04-06T07:00:02.005Z,12.20
2019-04-06T07:02:31.431Z,12.80
2019-04-06T07:05:00.802Z,13.30
2019-04-06T07:07:32.547Z,13.30
2019-04-06T07:10:05.960Z,13.70
2019-04-06T07:12:35.945Z,13.60
2019-04-06T07:15:09.394Z,13.50
2019-04-06T07:17:38.691Z,13.70
2019-04-06T07:20:08.748Z,14.20
2019-04-06T07:22:38.066Z,15.10
2019-04-06T07:25:09.257Z,15.70
2019-04-06T07:27:38.617Z,16.20
2019-04-06T07:30:10.088Z,16.50
2019-04-06T07:32:39.387Z,15.40
2019-04-06T07:35:09.152Z,15.60
2019-04-06T07:37:39.940Z,16.00
2019-04-06T07:40:09.875Z,16.10
2019-04-06T07:42:40.675Z,16.30
2019-04-06T07:45:10.823Z,16.30
2019-04-06T07:47:41.193Z,16.50
2019-04-06T07:50:11.092Z,17.10
2019-04-06T07:52:40.361Z,17.50
2019-04-06T07:55:11.272Z,18.40
2019-04-06T07:57:40.506Z,18.00
2019-04-06T08:00:10.421Z,18.40
2019-04-06T08:02:39.571Z,18.40
2019-04-06T08:05:09.090Z,18.00
2019-04-06T08:07:38.498Z,17.10
2019-04-06T08:10:08.515Z,17.00
2019-04-06T08:12:40.167Z,17.10
2019-04-06T08:15:12.365Z,17.40
2019-04-06T08:17:41.497Z,17.70
2019-04-06T08:20:11.759Z,18.70
2019-04-06T08:22:41.347Z,18.60
2019-04-06T08:25:10.756Z,18.30
2019-04-06T08:27:41.394Z,18.70
2019-04-06T08:30:11.214Z,17.80
2019-04-06T08:32:40.418Z,18.90
2019-04-06T08:35:10.174Z,19.30
2019-04-06T08:37:42.317Z,19.50
2019-04-06T08:40:11.933Z,19.30
2019-04-06T08:42:41.127Z,18.40
2019-04-06T08:45:16.453Z,17.60
2019-04-06T08:47:48.470Z,16.50
2019-04-06T08:50:17.901Z,16.70
2019-04-06T08:52:47.584Z,18.60
2019-04-06T08:55:18.242Z,19.80
2019-04-06T08:57:47.381Z,19.90
2019-04-06T09:00:17.674Z,18.20
2019-04-06T09:02:48.516Z,17.00
2019-04-06T09:05:18.688Z,16.40
2019-04-06T09:07:47.949Z,16.30
2019-04-06T09:10:17.923Z,15.90
2019-04-06T09:12:48.508Z,16.00
2019-04-06T09:15:18.359Z,16.90
2019-04-06T09:17:47.497Z,18.10
2019-04-06T09:20:18.179Z,17.90
2019-04-06T09:22:47.318Z,17.70
2019-04-06T09:25:16.516Z,18.10
2019-04-06T09:27:45.662Z,18.20
2019-04-06T09:30:15.413Z,18.00
2019-04-06T09:32:46.897Z,18.60
2019-04-06T09:35:16.253Z,19.20
2019-04-06T09:37:45.607Z,19.90
2019-04-06T09:40:16.035Z,19.60
2019-04-06T09:42:48.404Z,20.10
2019-04-06T09:45:30.885Z,20.20
2019-04-06T09:48:09.506Z,19.40
2019-04-06T09:51:07.248Z,18.20
2019-04-06T09:54:06.369Z,17.90
2019-04-06T09:56:45.407Z,17.00
2019-04-06T09:59:42.711Z,17.40
2019-04-06T10:02:24.745Z,17.50
2019-04-06T10:05:10.007Z,18.00
2019-04-06T10:07:46.439Z,17.30
2019-04-06T10:10:33.721Z,17.30
2019-04-06T10:13:17.602Z,16.50
2019-04-06T10:16:06.043Z,16.60
2019-04-06T10:18:49.384Z,15.20
2019-04-06T10:21:49.869Z,14.80
2019-04-06T10:24:36.622Z,14.60
2019-04-06T10:27:27.155Z,14.60
2019-04-06T10:30:35.290Z,14.70
2019-04-06T10:33:27.414Z,15.10
2019-04-06T10:36:14.685Z,14.60
2019-04-06T10:39:11.372Z,15.60
2019-04-06T10:41:59.192Z,16.70
2019-04-06T10:44:46.185Z,17.60
2019-04-06T10:47:33.959Z,18.40
2019-04-06T10:50:14.109Z,19.10
2019-04-06T10:53:08.436Z,18.60
2019-04-06T10:55:49.151Z,19.80
2019-04-06T10:58:36.118Z,19.10
2019-04-06T11:01:14.494Z,18.30
2019-04-06T11:04:01.267Z,18.20
2019-04-06T11:06:52.518Z,18.40
2019-04-06T11:09:39.169Z,18.30
2019-04-06T11:12:26.410Z,17.60
2019-04-06T11:15:14.769Z,18.20
2019-04-06T11:18:05.199Z,17.50
2019-04-06T11:21:05.504Z,17.10
2019-04-06T11:23:55.596Z,17.10
2019-04-06T11:26:56.196Z,17.90
2019-04-06T11:29:31.922Z,17.20
2019-04-06T11:32:11.519Z,17.00
2019-04-06T11:35:02.498Z,16.00
2019-04-06T11:37:55.540Z,16.40
2019-04-06T11:40:45.786Z,16.70
2019-04-06T11:43:30.731Z,17.30
2019-04-06T11:46:15.517Z,17.30
2019-04-06T11:48:56.604Z,17.40
2019-04-06T11:51:50.897Z,17.70
2019-04-06T11:54:39.120Z,17.60
2019-04-06T11:57:20.567Z,17.60
2019-04-06T12:00:09.450Z,17.70
2019-04-06T12:03:01.712Z,17.70
2019-04-06T12:05:43.473Z,17.90
2019-04-06T12:08:38.081Z,18.50
2019-04-06T12:11:25.282Z,18.80
2019-04-06T12:14:13.663Z,18.00
2019-04-06T12:17:02.257Z,17.20
2019-04-06T12:19:39.173Z,16.90
2019-04-06T12:22:23.743Z,16.50
2019-04-06T12:25:10.482Z,16.50
2019-04-06T12:27:58.773Z,16.50
2019-04-06T12:30:38.958Z,17.20
2019-04-06T12:33:25.049Z,17.80
2019-04-06T12:36:16.013Z,17.20
2019-04-06T12:39:05.766Z,17.20
2019-04-06T12:41:58.386Z,17.40
2019-04-06T12:44:52.207Z,17.30
2019-04-06T12:47:33.895Z,17.00
2019-04-06T12:50:14.507Z,16.70
2019-04-06T12:53:04.100Z,16.60
2019-04-06T12:55:58.521Z,16.60
2019-04-06T12:58:58.410Z,16.40
2019-04-06T13:01:45.251Z,16.70
2019-04-06T13:04:39.710Z,16.90
2019-04-06T13:07:27.059Z,17.40
2019-04-06T13:10:15.392Z,16.80
2019-04-06T13:12:58.512Z,16.30
2019-04-06T13:15:34.355Z,16.20
2019-04-06T13:18:16.810Z,16.60
2019-04-06T13:21:10.480Z,16.70
2019-04-06T13:24:07.974Z,16.10
2019-04-06T13:26:56.269Z,15.90
2019-04-06T13:29:53.431Z,16.10
2019-04-06T13:32:48.413Z,16.50
2019-04-06T13:35:30.186Z,16.90
2019-04-06T13:38:24.509Z,16.90
2019-04-06T13:41:13.922Z,17.10
2019-04-06T13:43:57.887Z,17.40
2019-04-06T13:46:40.263Z,17.30
2019-04-06T13:49:27.131Z,17.10
2019-04-06T13:52:05.805Z,17.00
2019-04-06T13:54:57.100Z,16.80
2019-04-06T13:57:37.776Z,17.10
2019-04-06T14:00:42.495Z,17.30
2019-04-06T14:03:31.496Z,17.10
2019-04-06T14:06:19.628Z,16.70
2019-04-06T14:09:11.025Z,17.20
2019-04-06T14:12:05.270Z,17.20
2019-04-06T14:14:49.963Z,17.10
2019-04-06T14:17:39.408Z,16.90
2019-04-06T14:20:19.604Z,16.50
2019-04-06T14:23:16.995Z,16.30
2019-04-06T14:26:14.474Z,16.30
2019-04-06T14:29:06.246Z,16.40
2019-04-06T14:31:58.518Z,16.10
2019-04-06T14:34:49.218Z,15.90
2019-04-06T14:37:59.033Z,15.80
2019-04-06T14:40:51.296Z,15.70
2019-04-06T14:43:42.480Z,15.60
2019-04-06T14:46:21.003Z,15.90
2019-04-06T14:49:13.560Z,16.30
2019-04-06T14:51:48.782Z,16.40
2019-04-06T14:54:28.826Z,16.30
2019-04-06T14:57:19.140Z,16.30
2019-04-06T15:00:06.510Z,16.20
2019-04-06T15:02:47.742Z,16.20
2019-04-06T15:05:36.898Z,16.30
2019-04-06T15:08:31.199Z,16.30
2019-04-06T15:11:12.774Z,16.50
2019-04-06T15:13:59.618Z,16.40
2019-04-06T15:16:47.057Z,16.40
2019-04-06T15:19:44.683Z,16.50
2019-04-06T15:22:26.054Z,16.70
2019-04-06T15:25:20.541Z,16.90
2019-04-06T15:28:24.151Z,16.60
2019-04-06T15:31:15.833Z,16.70
2019-04-06T15:34:10.990Z,16.60
2019-04-06T15:37:07.303Z,16.30
2019-04-06T15:40:07.783Z,16.40
2019-04-06T15:43:02.031Z,16.20
2019-04-06T15:45:53.066Z,16.20
2019-04-06T15:48:41.225Z,16.20
2019-04-06T15:51:28.509Z,16.20
2019-04-06T15:54:10.205Z,16.30
2019-04-06T15:56:51.048Z,16.10
2019-04-06T15:59:31.146Z,16.10
2019-04-06T16:02:17.937Z,16.00
2019-04-06T16:04:59.660Z,15.90
2019-04-06T16:08:06.629Z,15.80
2019-04-06T16:11:10.573Z,15.70
2019-04-06T16:14:07.839Z,15.70
2019-04-06T16:16:50.302Z,15.70
2019-04-06T16:19:33.189Z,15.70
2019-04-06T16:22:15.009Z,15.60
2019-04-06T16:24:52.330Z,15.50
2019-04-06T16:27:37.182Z,15.40
2019-04-06T16:30:20.417Z,15.40
2019-04-06T16:33:09.098Z,15.30
2019-04-06T16:36:00.912Z,15.20
2019-04-06T16:38:58.313Z,15.10
2019-04-06T16:41:41.178Z,15.00
2019-04-06T16:44:35.740Z,14.90
2019-04-06T16:47:22.341Z,14.80
2019-04-06T16:50:11.807Z,14.70
2019-04-06T16:52:59.043Z,14.60
2019-04-06T16:55:47.238Z,14.50
2019-04-06T16:58:23.596Z,14.40
2019-04-06T17:01:18.368Z,14.40
2019-04-06T17:04:10.220Z,14.30
2019-04-06T17:07:17.332Z,14.20
2019-04-06T17:09:56.380Z,14.20
2019-04-06T17:12:43.066Z,14.10
2019-04-06T17:15:33.375Z,14.10
2019-04-06T17:18:36.853Z,14.00
2019-04-06T17:21:20.544Z,13.90
2019-04-06T17:24:24.419Z,13.90
2019-04-06T17:27:20.452Z,13.80
2019-04-06T17:30:18.699Z,13.60
2019-04-06T17:33:02.710Z,13.60
2019-04-06T17:35:51.722Z,13.50
2019-04-06T17:38:40.124Z,13.30
2019-04-06T17:41:31.818Z,13.30
2019-04-06T17:44:32.560Z,13.10
2019-04-06T17:47:27.931Z,13.10
2019-04-06T17:50:18.788Z,12.90
2019-04-06T17:53:26.811Z,12.90
2019-04-06T17:56:07.374Z,12.80
2019-04-06T17:58:49.996Z,12.70
2019-04-06T18:01:32.037Z,12.60
2019-04-06T18:04:23.257Z,12.50
2019-04-06T18:07:04.882Z,12.40
2019-04-06T18:09:39.303Z,12.30
2019-04-06T18:12:28.076Z,12.30
2019-04-06T18:14:57.319Z,12.30
2019-04-06T18:17:28.191Z,12.30
2019-04-06T18:19:57.434Z,12.20
2019-04-06T18:22:28.593Z,12.20
2019-04-06T18:24:58.128Z,12.10
2019-04-06T18:27:27.454Z,12.00
2019-04-06T18:29:57.380Z,12.00
2019-04-06T18:32:41.772Z,11.90
2019-04-06T18:35:12.344Z,11.90
2019-04-06T18:37:51.362Z,11.80
2019-04-06T18:40:23.929Z,11.80
2019-04-06T18:42:53.245Z,11.80
2019-04-06T18:45:22.413Z,11.70
2019-04-06T18:47:52.349Z,11.60
2019-04-06T18:50:32.699Z,11.60
2019-04-06T18:52:55.553Z,11.50
2019-04-06T18:55:25.437Z,11.50
2019-04-06T18:58:09.699Z,11.50
2019-04-06T19:00:32.297Z,11.40
2019-04-06T19:03:12.522Z,11.30
2019-04-06T19:05:33.494Z,11.30
2019-04-06T19:08:02.997Z,11.20
2019-04-06T19:10:33.062Z,11.20
2019-04-06T19:13:02.368Z,11.10
2019-04-06T19:15:32.064Z,11.10
2019-04-06T19:18:07.831Z,11.10
2019-04-06T19:20:40.781Z,11.10
2019-04-06T19:23:10.379Z,11.00
2019-04-06T19:25:39.779Z,11.10
2019-04-06T19:28:09.296Z,11.10
2019-04-06T19:30:38.927Z,11.10
2019-04-06T19:33:22.718Z,11.10
2019-04-06T19:35:42.681Z,11.10
2019-04-06T19:38:13.117Z,11.10
2019-04-06T19:40:42.824Z,11.10
2019-04-06T19:43:13.634Z,11.00
2019-04-06T19:45:43.540Z,11.00
2019-04-06T19:48:16.097Z,11.00
2019-04-06T19:50:45.282Z,10.90
2019-04-06T19:53:14.970Z,10.90
2019-04-06T19:55:44.623Z,10.90
2019-04-06T19:58:13.864Z,10.80
2019-04-06T20:00:43.041Z,10.70
2019-04-06T20:03:12.282Z,10.70
2019-04-06T20:05:44.525Z,10.70
2019-04-06T20:08:13.732Z,10.70
2019-04-06T20:10:43.120Z,10.60
2019-04-06T20:13:12.834Z,10.60
2019-04-06T20:15:42.063Z,10.60
2019-04-06T20:18:15.051Z,10.70
2019-04-06T20:20:44.316Z,10.80
2019-04-06T20:23:13.961Z,10.70
2019-04-06T20:25:43.682Z,10.70
2019-04-06T20:28:13.283Z,10.70
2019-04-06T20:30:43.049Z,10.60
2019-04-06T20:33:14.119Z,10.60
2019-04-06T20:35:44.005Z,10.50
2019-04-06T20:38:13.915Z,10.50
2019-04-06T20:40:43.842Z,10.40
2019-04-06T20:43:13.187Z,10.30
2019-04-06T20:45:43.183Z,10.30
2019-04-06T20:48:12.993Z,10.20
2019-04-06T20:50:43.904Z,10.10
2019-04-06T20:53:21.105Z,10.00
2019-04-06T20:55:50.873Z,9.90
2019-04-06T20:58:20.402Z,9.70
2019-04-06T21:00:50.398Z,9.70
2019-04-06T21:03:19.908Z,9.60
2019-04-06T21:05:49.402Z,9.60
2019-04-06T21:08:18.853Z,9.70
2019-04-06T21:10:48.542Z,9.60
2019-04-06T21:13:17.932Z,9.60
2019-04-06T21:15:47.088Z,9.50
2019-04-06T21:18:16.567Z,9.50
2019-04-06T21:20:48.330Z,9.40
2019-04-06T21:23:18.097Z,9.40
2019-04-06T21:25:47.563Z,9.40
2019-04-06T21:28:19.708Z,9.40
2019-04-06T21:30:48.008Z,9.40
2019-04-06T21:33:17.260Z,9.40
2019-04-06T21:35:47.339Z,9.30
2019-04-06T21:38:17.072Z,9.30
2019-04-06T21:40:46.710Z,9.30
2019-04-06T21:43:16.057Z,9.40
2019-04-06T21:45:45.652Z,9.40
2019-04-06T21:48:16.021Z,9.40
2019-04-06T21:50:45.563Z,9.40
2019-04-06T21:53:15.035Z,9.30
2019-04-06T21:55:44.461Z,9.30
2019-04-06T21:58:14.151Z,9.20
